Latest Weather Observations for Jacup

IDW60801

Issued at 11:33 am WST Monday 19 November 2018 (issued every 10 minutes, with the page automatically refreshed every 10 minutes)

About weather observations | Map of weather stations | Latest weather observations for WA | Other Formats
Station Details ID: 010905 Name: JACUP Lat: -33.89 Lon: 119.11 Height: 305.0 m
Data from the previous 72 hours. | See also: Recent months at Jacup
Date/Time
WST
Temp
°C
App
Temp
°C
Dew
Point
°C
Rel
Hum
%
Delta-T
°C
Wind Press
QNH
hPa
Press
MSL
hPa
Rain since
9am
mm
Dir  Spd
km/h
Gust
km/h
Spd
kts
Gust
kts
19/11:30am 17.8 11.8 1.3 33 7.5 WSW 22 32 12 17 1017.5 1016.7 0.0
19/11:00am 17.7 12.0 0.8 32 7.5 SW 20 32 11 17 1017.6 1016.8 0.0
19/10:30am 18.5 12.6 1.5 32 7.8 SW 22 37 12 20 1017.6 1016.8 0.0
19/10:00am 16.7 10.9 -0.1 32 7.3 SW 20 37 11 20 1017.7 1016.9 0.0
19/09:30am 17.1 11.6 0.3 32 7.4 SW 19 30 10 16 1017.8 1017.0 0.0
19/09:00am 15.1 9.5 0.9 38 6.2 SW 20 30 11 16 1017.9 1017.1 0.0
19/08:30am 14.1 8.9 2.7 46 5.2 WSW 19 26 10 14 1018.1 1017.4 0.0
19/08:00am 12.8 8.1 2.9 51 4.4 SW 17 26 9 14 1018.0 1017.2 0.0
19/07:30am 12.8 7.5 2.9 51 4.4 SW 20 28 11 15 1017.7 1016.9 0.0
19/07:00am 12.2 7.6 3.7 56 3.9 WSW 17 24 9 13 1017.3 1016.6 0.0
19/06:30am 11.5 7.0 4.0 60 3.4 WSW 17 22 9 12 1017.2 1016.5 0.0
19/06:00am 9.8 6.4 4.2 68 2.5 WSW 11 20 6 11 1016.9 1016.2 0.0
19/05:30am 7.9 4.3 2.8 70 2.2 W 11 15 6 8 1016.7 1016.0 0.0
19/05:00am 8.1 4.7 2.1 66 2.5 W 9 13 5 7 1016.3 1015.6 0.0
19/04:30am 8.7 4.9 1.8 62 2.9 WSW 11 20 6 11 1016.0 1015.3 0.0
19/04:00am 10.0 6.2 1.9 57 3.5 WSW 11 20 6 11 1015.7 1015.0 0.0
19/03:30am 10.2 5.1 2.8 60 3.2 SW 19 28 10 15 1015.6 1014.9 0.0
19/03:00am 10.2 5.2 3.5 63 3.0 SW 19 30 10 16 1015.3 1014.6 0.0
19/02:30am 10.3 5.8 4.0 65 2.8 SW 17 26 9 14 1015.1 1014.3 0.0
19/02:00am 10.7 5.9 4.8 67 2.7 SW 19 30 10 16 1015.0 1014.2 0.0
19/01:30am 10.8 6.6 5.8 71 2.4 SSW 17 26 9 14 1014.9 1014.1 0.0
19/01:00am 11.0 7.0 6.7 75 2.1 SW 17 26 9 14 1015.1 1014.3 0.0
19/12:30am 11.0 8.1 8.2 83 1.4 SW 13 17 7 9 1015.4 1014.7 0.0
19/12:00am 10.9 7.3 8.5 85 1.2 SW 17 24 9 13 1015.3 1014.6 0.0
 
Date/Time
WST
Temp
°C
App
Temp
°C
Dew
Point
°C
Rel
Hum
%
Delta-T
°C
Wind Press
QNH
hPa
Press
MSL
hPa
Rain since
9am
mm
Dir  Spd
km/h
Gust
km/h
Spd
kts
Gust
kts
18/11:30pm 11.1 7.7 9.2 88 1.0 SSW 17 24 9 13 1015.2 1014.5 0.0
18/11:00pm 11.1 8.2 9.7 91 0.7 SW 15 24 8 13 1015.3 1014.6 0.0
18/10:30pm 11.2 8.8 10.0 92 0.6 SSW 13 19 7 10 1015.3 1014.6 0.0
18/10:00pm 11.6 9.3 10.3 92 0.7 SSW 13 20 7 11 1015.2 1014.5 0.0
18/09:30pm 11.9 9.6 10.6 92 0.7 SSW 13 19 7 10 1015.1 1014.3 0.0
18/09:00pm 11.8 9.1 10.5 92 0.7 SSW 15 24 8 13 1014.9 1014.1 0.0
18/08:30pm 12.2 8.9 10.8 91 0.7 SSW 19 39 10 21 1014.6 1013.8 0.0
18/08:00pm 12.7 8.8 10.8 88 1.0 SSW 22 37 12 20 1014.3 1013.5 0.0
18/07:30pm 13.0 9.2 11.1 88 1.0 SSW 22 39 12 21 1013.7 1013.0 0.0
18/07:00pm 13.7 9.6 11.6 87 1.1 SSW 24 33 13 18 1013.4 1012.7 0.0
18/06:30pm 14.7 9.5 11.5 81 1.7 SSW 30 44 16 24 1012.9 1012.2 0.0
18/06:00pm 15.5 10.7 11.7 78 2.1 S 28 50 15 27 1012.0 1011.2 0.0
18/05:58pm 15.7 10.9 11.5 76 2.3 S 28 50 15 27 1012.0 1011.2 0.0
18/05:30pm 18.3 13.4 12.5 69 3.3 SSW 30 46 16 25 1011.2 1010.4 0.0
18/05:00pm 20.7 16.6 12.7 60 4.6 S 26 41 14 22 1010.6 1009.8 0.0
18/04:49pm 20.0 16.2 12.3 61 4.4 S 24 46 13 25 1010.3 1009.6 0.0
18/04:30pm 20.7 16.4 10.8 53 5.5 S 24 39 13 21 1009.9 1009.2 0.0
18/04:00pm 22.8 17.9 9.9 44 7.1 S 26 50 14 27 1009.2 1008.4 0.0
18/03:54pm 23.5 18.4 9.1 40 7.9 SW 26 50 14 27 1009.3 1008.5 0.0
18/03:30pm 24.8 20.2 6.5 31 9.6 WSW 20 44 11 24 1008.7 1007.9 0.0
18/03:00pm 25.6 21.2 7.2 31 9.9 WSW 20 35 11 19 1008.8 1008.0 0.0
18/02:30pm 26.3 21.7 8.3 32 9.8 WSW 22 35 12 19 1008.9 1008.1 0.0
18/02:00pm 25.6 20.9 7.7 32 9.7 WSW 22 35 12 19 1009.2 1008.4 0.0
18/01:30pm 25.0 20.6 7.6 33 9.3 WSW 20 35 11 19 1009.3 1008.5 0.0
18/01:00pm 25.2 20.6 8.2 34 9.2 WSW 22 39 12 21 1009.5 1008.8 0.0
18/12:30pm 25.8 21.4 7.4 31 9.9 WSW 20 35 11 19 1009.7 1009.0 0.0
18/12:00pm 25.1 21.0 7.7 33 9.4 WSW 19 30 10 16 1010.1 1009.4 0.0
18/11:30am 23.0 18.1 7.1 36 8.4 WSW 22 33 12 18 1010.4 1009.7 0.0
18/11:00am 21.9 17.0 7.0 38 7.8 W 22 39 12 21 1010.8 1010.0 0.0
18/10:30am 21.1 16.6 7.0 40 7.3 WSW 20 37 11 20 1011.0 1010.2 0.0
18/10:00am 20.9 16.7 7.5 42 7.0 WSW 19 32 10 17 1011.1 1010.3 0.0
18/09:30am 19.5 14.4 7.6 46 6.2 WSW 24 35 13 19 1011.4 1010.6 0.0
18/09:00am 18.7 14.7 8.1 50 5.5 W 19 30 10 16 1011.5 1010.7 0.0
18/08:30am 17.9 13.7 8.2 53 5.0 W 20 30 11 16 1011.6 1010.8 0.0
18/08:00am 17.9 13.0 8.5 54 4.9 W 24 35 13 19 1011.6 1010.8 0.0
18/07:30am 17.4 13.0 9.1 58 4.4 WSW 22 33 12 18 1011.5 1010.7 0.0
18/07:00am 16.2 11.5 9.2 63 3.7 W 24 39 13 21 1011.3 1010.5 0.0
18/06:30am 15.3 10.6 9.4 68 3.1 WSW 24 33 13 18 1011.2 1010.4 0.0
18/06:00am 14.3 11.0 9.5 73 2.5 WSW 17 26 9 14 1011.0 1010.2 0.0
18/05:30am 13.7 9.7 9.2 74 2.3 WSW 20 28 11 15 1010.8 1010.0 0.0
18/05:00am 14.2 10.8 10.4 78 2.0 WSW 19 33 10 18 1010.3 1009.6 0.0
18/04:30am 14.1 12.4 11.3 83 1.5 SW 11 17 6 9 1009.9 1009.2 0.0
18/04:00am 14.2 12.5 11.2 82 1.6 WSW 11 19 6 10 1009.6 1008.9 0.0
18/03:30am 14.2 11.4 11.4 83 1.5 SW 17 24 9 13 1009.5 1008.8 0.0
18/03:00am 14.5 12.2 11.8 84 1.5 SW 15 22 8 12 1009.5 1008.8 0.0
18/02:30am 14.8 13.0 12.1 84 1.5 SSW 13 17 7 9 1009.4 1008.6 0.0
18/02:00am 15.1 13.5 12.8 86 1.3 SSW 13 19 7 10 1009.5 1008.8 0.0
18/01:30am 15.2 13.3 12.9 86 1.3 SW 15 22 8 12 1009.5 1008.8 0.0
18/01:00am 15.7 14.0 13.5 87 1.3 SW 15 24 8 13 1009.6 1008.9 0.0
18/12:30am 15.9 14.6 13.7 87 1.3 SSW 13 20 7 11 1009.7 1009.0 0.0
18/12:00am 16.0 14.4 14.0 88 1.2 S 15 24 8 13 1010.0 1009.3 0.0
 
Date/Time
WST
Temp
°C
App
Temp
°C
Dew
Point
°C
Rel
Hum
%
Delta-T
°C
Wind Press
QNH
hPa
Press
MSL
hPa
Rain since
9am
mm
Dir  Spd
km/h
Gust
km/h
Spd
kts
Gust
kts
17/11:30pm 16.2 15.1 14.2 88 1.2 S 13 20 7 11 1010.0 1009.3 0.0
17/11:00pm 16.2 15.5 14.4 89 1.0 S 11 19 6 10 1010.4 1009.7 0.0
17/10:30pm 16.1 15.5 14.5 90 0.9 S 11 15 6 8 1010.6 1009.8 0.0
17/10:00pm 16.0 15.3 14.4 90 0.9 SSE 11 17 6 9 1010.4 1009.7 0.0
17/09:30pm 16.1 16.1 14.1 88 1.2 S 7 11 4 6 1010.7 1009.9 0.0
17/09:00pm 16.8 15.8 14.6 87 1.3 S 13 17 7 9 1010.7 1009.9 0.0
17/08:30pm 17.2 16.6 14.7 85 1.5 SSE 11 15 6 8 1009.8 1009.1 0.0
17/08:00pm 17.7 17.1 14.6 82 1.8 S 11 17 6 9 1009.6 1008.9 0.0
17/07:30pm 18.5 16.6 14.2 76 2.5 SSE 17 26 9 14 1009.4 1008.6 0.0
17/07:00pm 20.1 17.4 13.6 66 3.8 S 20 30 11 16 1009.0 1008.2 0.0
17/06:30pm 21.9 19.1 13.3 58 5.0 S 20 30 11 16 1008.5 1007.7 0.0
17/06:00pm 25.0 22.1 12.9 47 7.1 S 20 33 11 18 1008.0 1007.2 0.0
17/05:30pm 27.0 24.6 13.7 44 8.0 S 19 30 10 16 1007.7 1006.9 0.0
17/05:00pm 29.4 26.9 13.6 38 9.6 S 19 28 10 15 1007.2 1006.4 0.0
17/04:30pm 28.4 24.7 12.7 38 9.3 S 24 39 13 21 1007.0 1006.3 0.0
17/04:28pm 28.6 24.4 12.5 37 9.5 S 26 44 14 24 1007.0 1006.3 0.0
17/04:00pm 33.6 29.1 6.8 19 14.9 W 20 32 11 17 1006.3 1005.5 0.0
17/03:30pm 35.2 29.6 7.3 18 15.7 WNW 26 46 14 25 1006.4 1005.6 0.0
17/03:16pm 35.2 29.1 6.5 17 15.9 WNW 28 46 15 25 1006.3 1005.5 0.0
17/03:00pm 35.5 29.2 5.8 16 16.4 WNW 28 44 15 24 1006.4 1005.6 0.0
17/02:30pm 34.8 29.2 7.0 18 15.5 W 26 39 14 21 1006.4 1005.6 0.0
17/02:26pm 34.3 28.2 6.6 18 15.3 WNW 28 46 15 25 1006.5 1005.7 0.0
17/02:00pm 34.3 29.1 8.8 21 14.7 WNW 26 41 14 22 1006.5 1005.7 0.0
17/01:50pm 33.8 29.1 9.1 22 14.2 WNW 24 46 13 25 1006.6 1005.9 0.0
17/01:30pm 33.9 29.6 9.2 22 14.2 W 22 35 12 19 1006.7 1006.0 0.0
17/01:00pm 35.1 30.6 10.2 22 14.7 W 24 37 13 20 1007.2 1006.4 0.0
17/12:30pm 32.8 28.3 10.2 25 13.1 WNW 24 35 13 19 1007.5 1006.7 0.0
17/12:00pm 33.4 28.4 9.4 23 13.9 NW 26 43 14 23 1007.8 1007.0 0.0
17/11:30am 33.5 28.9 9.5 23 13.9 NW 24 43 13 23 1008.2 1007.4 0.0
17/11:05am 32.6 27.0 8.8 23 13.5 NW 28 46 15 25 1008.4 1007.6 0.0
17/11:00am 32.6 27.2 9.4 24 13.3 NW 28 41 15 22 1008.5 1007.7 0.0
17/10:30am 31.8 26.7 9.3 25 12.8 NNW 26 41 14 22 1009.0 1008.2 0.0
17/10:07am 31.2 24.7 8.8 25 12.7 NNW 33 52 18 28 1009.3 1008.5 0.0
17/10:00am 31.2 24.7 8.8 25 12.7 NNW 33 50 18 27 1009.3 1008.5 0.0
17/09:36am 29.4 22.8 8.5 27 11.6 N 33 52 18 28 1009.7 1009.0 0.0
17/09:30am 29.3 22.3 8.4 27 11.6 N 35 52 19 28 1009.8 1009.1 0.0
17/09:00am 27.6 20.5 8.0 29 10.7 N 35 54 19 29 1010.1 1009.4 0.0
17/08:51am 27.3 20.0 7.2 28 10.8 N 35 54 19 29 1010.2 1009.5 0.0
17/08:30am 26.7 20.3 8.6 32 10.0 N 32 46 17 25 1010.4 1009.7 0.0
17/08:00am 24.8 19.5 9.9 39 8.3 NNE 28 46 15 25 1010.9 1010.1 0.0
17/07:58am 24.5 19.1 9.6 39 8.3 NNE 28 46 15 25 1010.9 1010.1 0.0
17/07:30am 23.4 19.1 10.8 45 7.1 NNE 24 35 13 19 1011.2 1010.4 0.0
17/07:00am 22.0 18.6 11.4 51 6.0 NNE 20 30 11 16 1011.5 1010.7 0.0
17/06:30am 19.9 16.9 12.4 62 4.3 NE 20 30 11 16 1011.5 1010.7 0.0
17/06:00am 17.4 16.1 15.9 91 0.9 NE 17 24 9 13 1011.6 1010.8 0.0
17/05:30am 14.3 12.5 13.3 94 0.6 NE 15 19 8 10 1011.8 1011.0 0.0
17/05:00am 13.7 11.7 12.8 94 0.5 ENE 15 19 8 10 1012.0 1011.2 0.0
17/04:30am 14.0 13.2 12.9 93 0.6 ESE 9 13 5 7 1012.3 1011.5 0.0
17/04:00am 14.8 13.9 13.8 94 0.6 ENE 11 15 6 8 1012.2 1011.4 0.0
17/03:30am 14.9 13.4 14.1 95 0.5 NE 15 17 8 9 1012.3 1011.5 0.0
17/03:00am 14.5 14.3 13.7 95 0.5 ENE 7 9 4 5 1012.9 1012.2 0.0
17/02:30am 14.4 13.8 13.6 95 0.5 ENE 9 13 5 7 1013.1 1012.4 0.0
17/02:00am 14.8 14.0 14.0 95 0.5 E 11 15 6 8 1013.7 1013.0 0.0
17/01:30am 14.6 13.7 13.6 94 0.6 E 11 17 6 9 1013.9 1013.2 0.0
17/01:00am 14.7 12.6 13.7 94 0.6 E 17 20 9 11 1013.9 1013.2 0.0
17/12:30am 14.9 15.3 13.8 93 0.6 ENE 4 11 2 6 1015.2 1014.5 0.0
17/12:00am 15.1 14.3 14.0 93 0.6 E 11 15 6 8 1015.4 1014.7 0.0
 
Date/Time
WST
Temp
°C
App
Temp
°C
Dew
Point
°C
Rel
Hum
%
Delta-T
°C
Wind Press
QNH
hPa
Press
MSL
hPa
Rain since
9am
mm
Dir  Spd
km/h
Gust
km/h
Spd
kts
Gust
kts
16/11:30pm 15.1 13.9 14.0 93 0.6 ESE 13 20 7 11 1016.1 1015.4 0.0
16/11:00pm 15.1 13.5 14.0 93 0.6 ENE 15 20 8 11 1016.4 1015.7 0.0
16/10:30pm 15.1 13.1 14.0 93 0.6 E 17 22 9 12 1016.2 1015.5 0.0
16/10:00pm 15.1 13.1 14.0 93 0.6 ESE 17 24 9 13 1016.4 1015.7 0.0
16/09:30pm 15.1 11.8 14.1 94 0.6 ESE 24 32 13 17 1016.7 1016.0 0.0
16/09:00pm 15.3 12.5 14.2 93 0.6 E 22 28 12 15 1017.5 1016.7 0.0
16/08:30pm 15.1 12.5 13.8 92 0.7 ESE 20 30 11 16 1017.2 1016.5 0.0
16/08:00pm 15.3 12.4 14.0 92 0.7 E 22 32 12 17 1017.2 1016.5 0.0
16/07:30pm 15.4 12.4 13.8 90 0.9 E 22 30 12 16 1017.1 1016.4 0.0
16/07:00pm 15.6 12.1 13.4 87 1.2 ESE 24 33 13 18 1017.3 1016.6 0.0
16/06:30pm 15.8 12.3 13.5 86 1.3 ESE 24 32 13 17 1017.5 1016.7 0.0
16/06:00pm 16.1 12.2 13.4 84 1.5 ESE 26 35 14 19 1017.5 1016.7 0.0
16/05:30pm 16.4 13.3 13.3 82 1.8 ESE 22 32 12 17 1017.3 1016.6 0.0
16/05:00pm 17.0 13.8 13.1 78 2.2 ESE 22 30 12 16 1017.8 1017.0 0.0
16/04:30pm 17.7 14.6 13.4 76 2.5 ESE 22 30 12 16 1017.8 1017.0 0.0
16/04:00pm 18.2 15.1 13.5 74 2.7 ESE 22 32 12 17 1017.9 1017.1 0.0
16/03:30pm 18.5 15.4 13.4 72 2.9 ESE 22 32 12 17 1017.8 1017.0 0.0
16/03:00pm 19.6 16.1 13.5 68 3.5 ESE 24 33 13 18 1017.6 1016.8 0.0
16/02:30pm 18.9 15.0 13.3 70 3.2 ESE 26 33 14 18 1017.9 1017.1 0.0
16/02:00pm 19.8 15.8 13.0 65 3.9 ESE 26 35 14 19 1018.0 1017.2 0.0
16/01:30pm 19.6 15.6 13.1 66 3.7 ESE 26 35 14 19 1018.5 1017.8 0.0
16/01:00pm 18.6 14.7 13.2 71 3.1 E 26 35 14 19 1018.8 1018.1 0.0
16/12:30pm 19.6 15.4 13.5 68 3.5 ESE 28 41 15 22 1019.1 1018.4 0.0
16/12:00pm 19.4 15.1 13.3 68 3.5 E 28 41 15 22 1019.4 1018.7 0.0

Other Formats:

Comma delimited format used in spreadsheet applications
http://www.bom.gov.au/fwo/IDW60801/IDW60801.95636.axf

JavaScript Object Notation format (JSON) in row-major order
http://www.bom.gov.au/fwo/IDW60801/IDW60801.95636.json